sensor_id;sensor_type;location;lat;lon;timestamp;pressure;altitude;pressure_sealevel;temperature
64960;BMP180;51487;52.266;10.542;2023-06-10T00:01:37;100795.00;;;15.90
64960;BMP180;51487;52.266;10.542;2023-06-10T00:04:03;100797.00;;;15.90
64960;BMP180;51487;52.266;10.542;2023-06-10T00:06:29;100801.00;;;15.70
64960;BMP180;51487;52.266;10.542;2023-06-10T00:09:04;100807.00;;;15.70
64960;BMP180;51487;52.266;10.542;2023-06-10T00:11:32;100800.00;;;15.60
64960;BMP180;51487;52.266;10.542;2023-06-10T00:13:57;100800.00;;;15.60
64960;BMP180;51487;52.266;10.542;2023-06-10T00:16:23;100801.00;;;15.50
64960;BMP180;51487;52.266;10.542;2023-06-10T00:18:49;100808.00;;;15.50
64960;BMP180;51487;52.266;10.542;2023-06-10T00:21:17;100797.00;;;15.40
64960;BMP180;51487;52.266;10.542;2023-06-10T00:23:42;100799.00;;;15.40
64960;BMP180;51487;52.266;10.542;2023-06-10T00:26:08;100799.00;;;15.40
64960;BMP180;51487;52.266;10.542;2023-06-10T00:28:34;100799.00;;;15.40
64960;BMP180;51487;52.266;10.542;2023-06-10T00:31:01;100798.00;;;15.20
64960;BMP180;51487;52.266;10.542;2023-06-10T00:33:27;100800.00;;;15.20
64960;BMP180;51487;52.266;10.542;2023-06-10T00:35:53;100798.00;;;15.00
64960;BMP180;51487;52.266;10.542;2023-06-10T00:38:18;100793.00;;;15.00
64960;BMP180;51487;52.266;10.542;2023-06-10T00:40:44;100799.00;;;15.00
64960;BMP180;51487;52.266;10.542;2023-06-10T00:43:09;100799.00;;;14.90
64960;BMP180;51487;52.266;10.542;2023-06-10T00:45:35;100800.00;;;14.90
64960;BMP180;51487;52.266;10.542;2023-06-10T00:48:00;100804.00;;;14.80
64960;BMP180;51487;52.266;10.542;2023-06-10T00:50:26;100797.00;;;14.80
64960;BMP180;51487;52.266;10.542;2023-06-10T00:52:53;100800.00;;;14.80
64960;BMP180;51487;52.266;10.542;2023-06-10T00:55:20;100803.00;;;14.70
64960;BMP180;51487;52.266;10.542;2023-06-10T00:57:47;100809.00;;;14.70
64960;BMP180;51487;52.266;10.542;2023-06-10T01:00:16;100809.00;;;14.60
64960;BMP180;51487;52.266;10.542;2023-06-10T01:02:42;100813.00;;;14.60
64960;BMP180;51487;52.266;10.542;2023-06-10T01:05:08;100812.00;;;14.50
64960;BMP180;51487;52.266;10.542;2023-06-10T01:10:28;100808.00;;;14.40
64960;BMP180;51487;52.266;10.542;2023-06-10T01:13:00;100812.00;;;14.40
64960;BMP180;51487;52.266;10.542;2023-06-10T01:15:33;100810.00;;;14.30
64960;BMP180;51487;52.266;10.542;2023-06-10T01:18:00;100809.00;;;14.40
64960;BMP180;51487;52.266;10.542;2023-06-10T01:20:29;100814.00;;;14.30
64960;BMP180;51487;52.266;10.542;2023-06-10T01:22:58;100807.00;;;14.20
64960;BMP180;51487;52.266;10.542;2023-06-10T01:25:26;100810.00;;;14.20
64960;BMP180;51487;52.266;10.542;2023-06-10T01:31:00;100808.00;;;14.00
64960;BMP180;51487;52.266;10.542;2023-06-10T01:33:45;100814.00;;;13.90
64960;BMP180;51487;52.266;10.542;2023-06-10T01:36:15;100822.00;;;13.90
64960;BMP180;51487;52.266;10.542;2023-06-10T01:38:44;100826.00;;;13.90
64960;BMP180;51487;52.266;10.542;2023-06-10T01:41:13;100819.00;;;13.90
64960;BMP180;51487;52.266;10.542;2023-06-10T01:43:43;100812.00;;;13.90
64960;BMP180;51487;52.266;10.542;2023-06-10T01:46:10;100821.00;;;13.80
64960;BMP180;51487;52.266;10.542;2023-06-10T01:48:37;100809.00;;;13.70
64960;BMP180;51487;52.266;10.542;2023-06-10T01:51:03;100815.00;;;13.70
64960;BMP180;51487;52.266;10.542;2023-06-10T01:53:29;100810.00;;;13.60
64960;BMP180;51487;52.266;10.542;2023-06-10T01:55:55;100815.00;;;13.60
64960;BMP180;51487;52.266;10.542;2023-06-10T01:58:21;100813.00;;;13.50
64960;BMP180;51487;52.266;10.542;2023-06-10T02:00:46;100820.00;;;13.50
64960;BMP180;51487;52.266;10.542;2023-06-10T02:03:12;100809.00;;;13.50
64960;BMP180;51487;52.266;10.542;2023-06-10T02:05:37;100820.00;;;13.40
64960;BMP180;51487;52.266;10.542;2023-06-10T02:08:04;100813.00;;;13.30
64960;BMP180;51487;52.266;10.542;2023-06-10T02:10:30;100811.00;;;13.20
64960;BMP180;51487;52.266;10.542;2023-06-10T02:12:55;100812.00;;;13.20
64960;BMP180;51487;52.266;10.542;2023-06-10T02:15:21;100813.00;;;13.10
64960;BMP180;51487;52.266;10.542;2023-06-10T02:17:46;100809.00;;;13.10
64960;BMP180;51487;52.266;10.542;2023-06-10T02:20:14;100818.00;;;13.10
64960;BMP180;51487;52.266;10.542;2023-06-10T02:22:39;100813.00;;;13.10
64960;BMP180;51487;52.266;10.542;2023-06-10T02:25:05;100814.00;;;13.20
64960;BMP180;51487;52.266;10.542;2023-06-10T02:27:31;100817.00;;;13.20
64960;BMP180;51487;52.266;10.542;2023-06-10T02:29:57;100823.00;;;13.10
64960;BMP180;51487;52.266;10.542;2023-06-10T02:32:23;100822.00;;;13.10
64960;BMP180;51487;52.266;10.542;2023-06-10T02:34:49;100817.00;;;13.10
64960;BMP180;51487;52.266;10.542;2023-06-10T02:37:15;100824.00;;;13.00
64960;BMP180;51487;52.266;10.542;2023-06-10T02:39:41;100825.00;;;13.00
64960;BMP180;51487;52.266;10.542;2023-06-10T02:42:07;100822.00;;;13.00
64960;BMP180;51487;52.266;10.542;2023-06-10T02:44:32;100831.00;;;12.90
64960;BMP180;51487;52.266;10.542;2023-06-10T02:46:58;100829.00;;;12.80
64960;BMP180;51487;52.266;10.542;2023-06-10T02:49:23;100830.00;;;12.80
64960;BMP180;51487;52.266;10.542;2023-06-10T02:51:50;100839.00;;;12.80
64960;BMP180;51487;52.266;10.542;2023-06-10T02:54:19;100834.00;;;12.90
64960;BMP180;51487;52.266;10.542;2023-06-10T02:56:45;100831.00;;;12.80
64960;BMP180;51487;52.266;10.542;2023-06-10T02:59:13;100835.00;;;12.70
64960;BMP180;51487;52.266;10.542;2023-06-10T03:01:39;100839.00;;;12.80
64960;BMP180;51487;52.266;10.542;2023-06-10T03:04:06;100860.00;;;12.80
64960;BMP180;51487;52.266;10.542;2023-06-10T03:06:32;100876.00;;;12.90
64960;BMP180;51487;52.266;10.542;2023-06-10T03:09:01;100876.00;;;12.90
64960;BMP180;51487;52.266;10.542;2023-06-10T03:11:29;100866.00;;;12.90
64960;BMP180;51487;52.266;10.542;2023-06-10T03:13:56;100866.00;;;12.80
64960;BMP180;51487;52.266;10.542;2023-06-10T03:16:22;100858.00;;;12.90
64960;BMP180;51487;52.266;10.542;2023-06-10T03:18:49;100860.00;;;12.90
64960;BMP180;51487;52.266;10.542;2023-06-10T03:21:14;100851.00;;;12.90
64960;BMP180;51487;52.266;10.542;2023-06-10T03:23:40;100848.00;;;12.80
64960;BMP180;51487;52.266;10.542;2023-06-10T03:26:05;100844.00;;;12.80
64960;BMP180;51487;52.266;10.542;2023-06-10T03:28:31;100843.00;;;12.60
64960;BMP180;51487;52.266;10.542;2023-06-10T03:30:57;100838.00;;;12.60
64960;BMP180;51487;52.266;10.542;2023-06-10T03:33:22;100848.00;;;12.60
64960;BMP180;51487;52.266;10.542;2023-06-10T03:35:48;100852.00;;;12.50
64960;BMP180;51487;52.266;10.542;2023-06-10T03:38:14;100847.00;;;12.50
64960;BMP180;51487;52.266;10.542;2023-06-10T03:40:39;100852.00;;;12.50
64960;BMP180;51487;52.266;10.542;2023-06-10T03:43:05;100839.00;;;12.60
64960;BMP180;51487;52.266;10.542;2023-06-10T03:45:31;100828.00;;;12.50
64960;BMP180;51487;52.266;10.542;2023-06-10T03:47:57;100832.00;;;12.60
64960;BMP180;51487;52.266;10.542;2023-06-10T03:50:23;100832.00;;;12.60
64960;BMP180;51487;52.266;10.542;2023-06-10T03:52:49;100836.00;;;12.60
64960;BMP180;51487;52.266;10.542;2023-06-10T03:55:15;100830.00;;;12.60
64960;BMP180;51487;52.266;10.542;2023-06-10T03:57:41;100845.00;;;12.60
64960;BMP180;51487;52.266;10.542;2023-06-10T04:00:08;100843.00;;;12.70
64960;BMP180;51487;52.266;10.542;2023-06-10T04:02:38;100848.00;;;12.70
64960;BMP180;51487;52.266;10.542;2023-06-10T04:05:14;100838.00;;;12.70
64960;BMP180;51487;52.266;10.542;2023-06-10T04:07:41;100835.00;;;12.70
64960;BMP180;51487;52.266;10.542;2023-06-10T04:10:10;100844.00;;;12.70
64960;BMP180;51487;52.266;10.542;2023-06-10T04:12:37;100847.00;;;12.90
64960;BMP180;51487;52.266;10.542;2023-06-10T04:15:04;100835.00;;;12.80
64960;BMP180;51487;52.266;10.542;2023-06-10T04:17:30;100833.00;;;12.80
64960;BMP180;51487;52.266;10.542;2023-06-10T04:19:57;100831.00;;;12.90
64960;BMP180;51487;52.266;10.542;2023-06-10T04:22:23;100844.00;;;12.90
64960;BMP180;51487;52.266;10.542;2023-06-10T04:24:49;100851.00;;;12.90
64960;BMP180;51487;52.266;10.542;2023-06-10T04:27:14;100852.00;;;13.00
64960;BMP180;51487;52.266;10.542;2023-06-10T04:29:40;100844.00;;;13.00
64960;BMP180;51487;52.266;10.542;2023-06-10T04:32:06;100851.00;;;13.10
64960;BMP180;51487;52.266;10.542;2023-06-10T04:34:36;100844.00;;;13.20
64960;BMP180;51487;52.266;10.542;2023-06-10T04:37:04;100846.00;;;13.20
64960;BMP180;51487;52.266;10.542;2023-06-10T04:39:30;100848.00;;;13.30
64960;BMP180;51487;52.266;10.542;2023-06-10T04:41:55;100856.00;;;13.30
64960;BMP180;51487;52.266;10.542;2023-06-10T04:44:21;100857.00;;;13.40
64960;BMP180;51487;52.266;10.542;2023-06-10T04:46:47;100854.00;;;13.50
64960;BMP180;51487;52.266;10.542;2023-06-10T04:49:13;100849.00;;;13.70
64960;BMP180;51487;52.266;10.542;2023-06-10T04:51:41;100855.00;;;13.70
64960;BMP180;51487;52.266;10.542;2023-06-10T04:54:07;100848.00;;;13.70
64960;BMP180;51487;52.266;10.542;2023-06-10T04:56:33;100854.00;;;13.80
64960;BMP180;51487;52.266;10.542;2023-06-10T04:58:59;100851.00;;;13.70
64960;BMP180;51487;52.266;10.542;2023-06-10T05:01:25;100855.00;;;13.60
64960;BMP180;51487;52.266;10.542;2023-06-10T05:03:51;100862.00;;;13.50
64960;BMP180;51487;52.266;10.542;2023-06-10T05:06:17;100858.00;;;13.60
64960;BMP180;51487;52.266;10.542;2023-06-10T05:08:43;100860.00;;;13.70
64960;BMP180;51487;52.266;10.542;2023-06-10T05:11:08;100855.00;;;13.80
64960;BMP180;51487;52.266;10.542;2023-06-10T05:13:34;100862.00;;;13.80
64960;BMP180;51487;52.266;10.542;2023-06-10T05:15:59;100863.00;;;13.90
64960;BMP180;51487;52.266;10.542;2023-06-10T05:18:25;100870.00;;;13.90
64960;BMP180;51487;52.266;10.542;2023-06-10T05:20:50;100863.00;;;13.90
64960;BMP180;51487;52.266;10.542;2023-06-10T05:23:16;100858.00;;;13.80
64960;BMP180;51487;52.266;10.542;2023-06-10T05:25:42;100850.00;;;13.80
64960;BMP180;51487;52.266;10.542;2023-06-10T05:28:08;100852.00;;;13.90
64960;BMP180;51487;52.266;10.542;2023-06-10T05:30:36;100852.00;;;14.00
64960;BMP180;51487;52.266;10.542;2023-06-10T05:33:03;100847.00;;;13.80
64960;BMP180;51487;52.266;10.542;2023-06-10T05:35:29;100847.00;;;13.80
64960;BMP180;51487;52.266;10.542;2023-06-10T05:37:55;100853.00;;;13.70
64960;BMP180;51487;52.266;10.542;2023-06-10T05:40:21;100850.00;;;13.90
64960;BMP180;51487;52.266;10.542;2023-06-10T05:42:46;100859.00;;;14.00
64960;BMP180;51487;52.266;10.542;2023-06-10T05:45:12;100860.00;;;14.10
64960;BMP180;51487;52.266;10.542;2023-06-10T05:47:38;100856.00;;;14.10
64960;BMP180;51487;52.266;10.542;2023-06-10T05:50:04;100854.00;;;14.20
64960;BMP180;51487;52.266;10.542;2023-06-10T05:52:33;100844.00;;;14.20
64960;BMP180;51487;52.266;10.542;2023-06-10T05:54:59;100854.00;;;14.30
64960;BMP180;51487;52.266;10.542;2023-06-10T05:57:25;100853.00;;;14.30
64960;BMP180;51487;52.266;10.542;2023-06-10T05:59:51;100848.00;;;14.40
64960;BMP180;51487;52.266;10.542;2023-06-10T06:02:16;100851.00;;;14.30
64960;BMP180;51487;52.266;10.542;2023-06-10T06:04:42;100846.00;;;14.30
64960;BMP180;51487;52.266;10.542;2023-06-10T06:07:08;100853.00;;;14.40
64960;BMP180;51487;52.266;10.542;2023-06-10T06:09:33;100853.00;;;14.30
64960;BMP180;51487;52.266;10.542;2023-06-10T06:11:59;100859.00;;;14.30
64960;BMP180;51487;52.266;10.542;2023-06-10T06:14:25;100852.00;;;14.20
64960;BMP180;51487;52.266;10.542;2023-06-10T06:16:50;100860.00;;;14.20
64960;BMP180;51487;52.266;10.542;2023-06-10T06:19:16;100863.00;;;14.20
64960;BMP180;51487;52.266;10.542;2023-06-10T06:21:41;100862.00;;;14.30
64960;BMP180;51487;52.266;10.542;2023-06-10T06:24:07;100862.00;;;14.50
64960;BMP180;51487;52.266;10.542;2023-06-10T06:26:32;100855.00;;;14.60
64960;BMP180;51487;52.266;10.542;2023-06-10T06:28:58;100862.00;;;14.60
64960;BMP180;51487;52.266;10.542;2023-06-10T06:31:23;100858.00;;;14.80
64960;BMP180;51487;52.266;10.542;2023-06-10T06:33:49;100860.00;;;14.80
64960;BMP180;51487;52.266;10.542;2023-06-10T06:36:14;100858.00;;;14.70
64960;BMP180;51487;52.266;10.542;2023-06-10T06:38:40;100852.00;;;14.80
64960;BMP180;51487;52.266;10.542;2023-06-10T06:41:05;100870.00;;;14.90
64960;BMP180;51487;52.266;10.542;2023-06-10T06:43:32;100868.00;;;14.90
64960;BMP180;51487;52.266;10.542;2023-06-10T06:45:58;100861.00;;;14.90
64960;BMP180;51487;52.266;10.542;2023-06-10T06:48:24;100864.00;;;15.00
64960;BMP180;51487;52.266;10.542;2023-06-10T06:50:49;100865.00;;;15.00
64960;BMP180;51487;52.266;10.542;2023-06-10T06:53:15;100861.00;;;15.00
64960;BMP180;51487;52.266;10.542;2023-06-10T06:55:40;100861.00;;;14.80
64960;BMP180;51487;52.266;10.542;2023-06-10T06:58:06;100870.00;;;15.00
64960;BMP180;51487;52.266;10.542;2023-06-10T07:00:32;100873.00;;;15.10
64960;BMP180;51487;52.266;10.542;2023-06-10T07:02:57;100870.00;;;15.20
64960;BMP180;51487;52.266;10.542;2023-06-10T07:05:24;100862.00;;;15.30
64960;BMP180;51487;52.266;10.542;2023-06-10T07:07:53;100872.00;;;15.50
64960;BMP180;51487;52.266;10.542;2023-06-10T07:10:24;100872.00;;;15.50
64960;BMP180;51487;52.266;10.542;2023-06-10T07:12:50;100872.00;;;15.70
64960;BMP180;51487;52.266;10.542;2023-06-10T07:15:16;100878.00;;;15.80
64960;BMP180;51487;52.266;10.542;2023-06-10T07:17:43;100876.00;;;15.90
64960;BMP180;51487;52.266;10.542;2023-06-10T07:20:09;100879.00;;;15.90
64960;BMP180;51487;52.266;10.542;2023-06-10T07:22:35;100882.00;;;16.10
64960;BMP180;51487;52.266;10.542;2023-06-10T07:25:01;100884.00;;;16.20
64960;BMP180;51487;52.266;10.542;2023-06-10T07:27:26;100880.00;;;16.20
64960;BMP180;51487;52.266;10.542;2023-06-10T07:29:52;100871.00;;;16.30
64960;BMP180;51487;52.266;10.542;2023-06-10T07:32:19;100877.00;;;16.40
64960;BMP180;51487;52.266;10.542;2023-06-10T07:34:49;100885.00;;;16.50
64960;BMP180;51487;52.266;10.542;2023-06-10T07:37:15;100884.00;;;16.40
64960;BMP180;51487;52.266;10.542;2023-06-10T07:39:41;100881.00;;;16.40
64960;BMP180;51487;52.266;10.542;2023-06-10T07:42:08;100872.00;;;16.50
64960;BMP180;51487;52.266;10.542;2023-06-10T07:44:34;100867.00;;;16.50
64960;BMP180;51487;52.266;10.542;2023-06-10T07:46:59;100876.00;;;16.50
64960;BMP180;51487;52.266;10.542;2023-06-10T07:49:25;100873.00;;;16.60
64960;BMP180;51487;52.266;10.542;2023-06-10T07:51:50;100881.00;;;16.80
64960;BMP180;51487;52.266;10.542;2023-06-10T07:54:19;100871.00;;;16.80
64960;BMP180;51487;52.266;10.542;2023-06-10T07:56:44;100864.00;;;16.80
64960;BMP180;51487;52.266;10.542;2023-06-10T07:59:10;100867.00;;;16.90
64960;BMP180;51487;52.266;10.542;2023-06-10T08:01:35;100870.00;;;17.10
64960;BMP180;51487;52.266;10.542;2023-06-10T08:04:03;100874.00;;;17.20
64960;BMP180;51487;52.266;10.542;2023-06-10T08:06:29;100870.00;;;17.20
64960;BMP180;51487;52.266;10.542;2023-06-10T08:08:55;100869.00;;;17.50
64960;BMP180;51487;52.266;10.542;2023-06-10T08:11:20;100869.00;;;17.50
64960;BMP180;51487;52.266;10.542;2023-06-10T08:13:46;100868.00;;;17.60
64960;BMP180;51487;52.266;10.542;2023-06-10T08:16:12;100880.00;;;17.60
64960;BMP180;51487;52.266;10.542;2023-06-10T08:18:37;100877.00;;;17.70
64960;BMP180;51487;52.266;10.542;2023-06-10T08:21:03;100878.00;;;17.60
64960;BMP180;51487;52.266;10.542;2023-06-10T08:23:28;100875.00;;;17.80
64960;BMP180;51487;52.266;10.542;2023-06-10T08:25:54;100880.00;;;17.90
64960;BMP180;51487;52.266;10.542;2023-06-10T08:28:19;100872.00;;;18.00
64960;BMP180;51487;52.266;10.542;2023-06-10T08:30:45;100874.00;;;18.10
64960;BMP180;51487;52.266;10.542;2023-06-10T08:33:10;100873.00;;;18.10
64960;BMP180;51487;52.266;10.542;2023-06-10T08:35:36;100879.00;;;18.30
64960;BMP180;51487;52.266;10.542;2023-06-10T08:38:01;100871.00;;;18.40
64960;BMP180;51487;52.266;10.542;2023-06-10T08:40:27;100868.00;;;18.50
64960;BMP180;51487;52.266;10.542;2023-06-10T08:46:09;100869.00;;;18.70
64960;BMP180;51487;52.266;10.542;2023-06-10T08:48:43;100875.00;;;18.90
64960;BMP180;51487;52.266;10.542;2023-06-10T08:51:12;100871.00;;;18.90
64960;BMP180;51487;52.266;10.542;2023-06-10T08:53:54;100870.00;;;18.90
64960;BMP180;51487;52.266;10.542;2023-06-10T08:56:28;100870.00;;;19.00
64960;BMP180;51487;52.266;10.542;2023-06-10T08:58:56;100874.00;;;19.10
64960;BMP180;51487;52.266;10.542;2023-06-10T09:01:24;100874.00;;;19.20
64960;BMP180;51487;52.266;10.542;2023-06-10T09:03:51;100880.00;;;19.30
64960;BMP180;51487;52.266;10.542;2023-06-10T09:06:17;100875.00;;;19.40
64960;BMP180;51487;52.266;10.542;2023-06-10T09:08:43;100869.00;;;19.30
64960;BMP180;51487;52.266;10.542;2023-06-10T09:11:09;100866.00;;;19.40
64960;BMP180;51487;52.266;10.542;2023-06-10T09:13:35;100870.00;;;19.20
64960;BMP180;51487;52.266;10.542;2023-06-10T09:16:01;100862.00;;;19.40
64960;BMP180;51487;52.266;10.542;2023-06-10T09:18:28;100864.00;;;19.60
64960;BMP180;51487;52.266;10.542;2023-06-10T09:20:54;100860.00;;;19.70
64960;BMP180;51487;52.266;10.542;2023-06-10T09:23:21;100863.00;;;19.80
64960;BMP180;51487;52.266;10.542;2023-06-10T09:25:56;100862.00;;;19.90
64960;BMP180;51487;52.266;10.542;2023-06-10T09:28:25;100870.00;;;19.90
64960;BMP180;51487;52.266;10.542;2023-06-10T09:31:03;100868.00;;;20.10
64960;BMP180;51487;52.266;10.542;2023-06-10T09:33:31;100870.00;;;20.10
64960;BMP180;51487;52.266;10.542;2023-06-10T09:35:57;100862.00;;;20.30
64960;BMP180;51487;52.266;10.542;2023-06-10T09:38:29;100863.00;;;20.40
64960;BMP180;51487;52.266;10.542;2023-06-10T09:41:00;100868.00;;;20.50
64960;BMP180;51487;52.266;10.542;2023-06-10T09:43:46;100859.00;;;20.50
64960;BMP180;51487;52.266;10.542;2023-06-10T09:46:18;100862.00;;;20.50
64960;BMP180;51487;52.266;10.542;2023-06-10T09:48:46;100851.00;;;20.50
64960;BMP180;51487;52.266;10.542;2023-06-10T09:51:13;100856.00;;;20.50
64960;BMP180;51487;52.266;10.542;2023-06-10T09:53:40;100856.00;;;20.60
64960;BMP180;51487;52.266;10.542;2023-06-10T09:56:05;100851.00;;;20.80
64960;BMP180;51487;52.266;10.542;2023-06-10T09:58:38;100865.00;;;21.10
64960;BMP180;51487;52.266;10.542;2023-06-10T10:01:14;100852.00;;;21.10
64960;BMP180;51487;52.266;10.542;2023-06-10T10:03:47;100856.00;;;21.20
64960;BMP180;51487;52.266;10.542;2023-06-10T10:06:16;100859.00;;;21.30
64960;BMP180;51487;52.266;10.542;2023-06-10T10:08:45;100861.00;;;21.40
64960;BMP180;51487;52.266;10.542;2023-06-10T10:11:12;100854.00;;;21.40
64960;BMP180;51487;52.266;10.542;2023-06-10T10:13:41;100847.00;;;21.40
64960;BMP180;51487;52.266;10.542;2023-06-10T10:16:11;100844.00;;;21.50
64960;BMP180;51487;52.266;10.542;2023-06-10T10:18:43;100844.00;;;21.50
64960;BMP180;51487;52.266;10.542;2023-06-10T10:21:22;100835.00;;;21.60
64960;BMP180;51487;52.266;10.542;2023-06-10T10:24:03;100832.00;;;21.80
64960;BMP180;51487;52.266;10.542;2023-06-10T10:26:35;100825.00;;;21.90
64960;BMP180;51487;52.266;10.542;2023-06-10T10:32:01;100826.00;;;21.80
64960;BMP180;51487;52.266;10.542;2023-06-10T10:34:48;100833.00;;;21.90
64960;BMP180;51487;52.266;10.542;2023-06-10T10:37:19;100820.00;;;22.00
64960;BMP180;51487;52.266;10.542;2023-06-10T10:39:45;100818.00;;;22.00
64960;BMP180;51487;52.266;10.542;2023-06-10T10:42:11;100814.00;;;22.10
64960;BMP180;51487;52.266;10.542;2023-06-10T10:44:38;100818.00;;;22.30
64960;BMP180;51487;52.266;10.542;2023-06-10T10:47:07;100818.00;;;22.40
64960;BMP180;51487;52.266;10.542;2023-06-10T10:49:35;100828.00;;;22.50
64960;BMP180;51487;52.266;10.542;2023-06-10T10:52:03;100821.00;;;22.60
64960;BMP180;51487;52.266;10.542;2023-06-10T10:54:33;100821.00;;;22.60
64960;BMP180;51487;52.266;10.542;2023-06-10T11:02:17;100818.00;;;23.00
64960;BMP180;51487;52.266;10.542;2023-06-10T11:04:46;100819.00;;;23.10
64960;BMP180;51487;52.266;10.542;2023-06-10T11:07:13;100820.00;;;23.10
64960;BMP180;51487;52.266;10.542;2023-06-10T11:10:11;100818.00;;;23.10
64960;BMP180;51487;52.266;10.542;2023-06-10T11:15:10;100819.00;;;23.40
64960;BMP180;51487;52.266;10.542;2023-06-10T11:17:37;100815.00;;;23.50
64960;BMP180;51487;52.266;10.542;2023-06-10T11:20:03;100819.00;;;23.50
64960;BMP180;51487;52.266;10.542;2023-06-10T11:22:29;100814.00;;;23.50
64960;BMP180;51487;52.266;10.542;2023-06-10T11:24:54;100820.00;;;23.50
64960;BMP180;51487;52.266;10.542;2023-06-10T11:27:22;100809.00;;;23.60
64960;BMP180;51487;52.266;10.542;2023-06-10T11:32:33;100809.00;;;23.90
64960;BMP180;51487;52.266;10.542;2023-06-10T11:35:00;100812.00;;;24.00
64960;BMP180;51487;52.266;10.542;2023-06-10T11:37:30;100812.00;;;24.00
64960;BMP180;51487;52.266;10.542;2023-06-10T11:39:56;100797.00;;;24.20
64960;BMP180;51487;52.266;10.542;2023-06-10T11:42:22;100798.00;;;24.30
64960;BMP180;51487;52.266;10.542;2023-06-10T11:44:53;100800.00;;;24.40
64960;BMP180;51487;52.266;10.542;2023-06-10T11:47:20;100801.00;;;24.30
64960;BMP180;51487;52.266;10.542;2023-06-10T11:49:56;100796.00;;;24.30
64960;BMP180;51487;52.266;10.542;2023-06-10T11:52:26;100802.00;;;24.50
64960;BMP180;51487;52.266;10.542;2023-06-10T11:54:54;100800.00;;;24.50
64960;BMP180;51487;52.266;10.542;2023-06-10T11:57:20;100801.00;;;24.50
64960;BMP180;51487;52.266;10.542;2023-06-10T11:59:46;100794.00;;;24.50
64960;BMP180;51487;52.266;10.542;2023-06-10T12:02:16;100800.00;;;24.50
64960;BMP180;51487;52.266;10.542;2023-06-10T12:04:42;100794.00;;;24.60
64960;BMP180;51487;52.266;10.542;2023-06-10T12:07:07;100787.00;;;24.60
64960;BMP180;51487;52.266;10.542;2023-06-10T12:09:33;100797.00;;;24.80
64960;BMP180;51487;52.266;10.542;2023-06-10T12:12:04;100788.00;;;24.90
64960;BMP180;51487;52.266;10.542;2023-06-10T12:14:54;100795.00;;;24.90
64960;BMP180;51487;52.266;10.542;2023-06-10T12:19:58;100782.00;;;24.90
64960;BMP180;51487;52.266;10.542;2023-06-10T12:22:25;100786.00;;;25.10
64960;BMP180;51487;52.266;10.542;2023-06-10T12:24:58;100794.00;;;25.30
64960;BMP180;51487;52.266;10.542;2023-06-10T12:27:25;100787.00;;;25.30
64960;BMP180;51487;52.266;10.542;2023-06-10T12:29:52;100782.00;;;25.30
64960;BMP180;51487;52.266;10.542;2023-06-10T12:32:19;100785.00;;;25.50
64960;BMP180;51487;52.266;10.542;2023-06-10T12:34:45;100781.00;;;25.50
64960;BMP180;51487;52.266;10.542;2023-06-10T12:37:12;100779.00;;;25.60
64960;BMP180;51487;52.266;10.542;2023-06-10T12:39:41;100773.00;;;25.60
64960;BMP180;51487;52.266;10.542;2023-06-10T12:42:12;100771.00;;;25.60
64960;BMP180;51487;52.266;10.542;2023-06-10T12:44:40;100779.00;;;25.70
64960;BMP180;51487;52.266;10.542;2023-06-10T12:47:10;100762.00;;;25.70
64960;BMP180;51487;52.266;10.542;2023-06-10T12:49:39;100766.00;;;25.70
64960;BMP180;51487;52.266;10.542;2023-06-10T12:52:05;100770.00;;;25.70
64960;BMP180;51487;52.266;10.542;2023-06-10T12:54:32;100759.00;;;25.90
64960;BMP180;51487;52.266;10.542;2023-06-10T12:56:58;100757.00;;;26.00
64960;BMP180;51487;52.266;10.542;2023-06-10T12:59:23;100754.00;;;26.10
64960;BMP180;51487;52.266;10.542;2023-06-10T13:01:52;100751.00;;;26.10
64960;BMP180;51487;52.266;10.542;2023-06-10T13:04:19;100754.00;;;26.20
64960;BMP180;51487;52.266;10.542;2023-06-10T13:06:46;100748.00;;;26.20
64960;BMP180;51487;52.266;10.542;2023-06-10T13:09:13;100747.00;;;26.30
64960;BMP180;51487;52.266;10.542;2023-06-10T13:11:39;100747.00;;;26.30
64960;BMP180;51487;52.266;10.542;2023-06-10T13:14:05;100750.00;;;26.40
64960;BMP180;51487;52.266;10.542;2023-06-10T13:16:32;100744.00;;;26.30
64960;BMP180;51487;52.266;10.542;2023-06-10T13:18:58;100741.00;;;26.30
64960;BMP180;51487;52.266;10.542;2023-06-10T13:21:24;100744.00;;;26.40
64960;BMP180;51487;52.266;10.542;2023-06-10T13:23:50;100741.00;;;26.60
64960;BMP180;51487;52.266;10.542;2023-06-10T13:26:16;100733.00;;;26.70
64960;BMP180;51487;52.266;10.542;2023-06-10T13:28:43;100718.00;;;26.80
64960;BMP180;51487;52.266;10.542;2023-06-10T13:31:09;100722.00;;;26.70
64960;BMP180;51487;52.266;10.542;2023-06-10T13:33:36;100710.00;;;26.90
64960;BMP180;51487;52.266;10.542;2023-06-10T13:36:01;100720.00;;;27.00
64960;BMP180;51487;52.266;10.542;2023-06-10T13:38:27;100719.00;;;27.00
64960;BMP180;51487;52.266;10.542;2023-06-10T13:40:53;100711.00;;;27.00
64960;BMP180;51487;52.266;10.542;2023-06-10T13:43:18;100713.00;;;27.20
64960;BMP180;51487;52.266;10.542;2023-06-10T13:45:44;100709.00;;;27.20
64960;BMP180;51487;52.266;10.542;2023-06-10T13:48:10;100701.00;;;27.20
64960;BMP180;51487;52.266;10.542;2023-06-10T13:50:37;100705.00;;;27.40
64960;BMP180;51487;52.266;10.542;2023-06-10T13:53:03;100692.00;;;27.50
64960;BMP180;51487;52.266;10.542;2023-06-10T13:55:29;100714.00;;;27.50
64960;BMP180;51487;52.266;10.542;2023-06-10T13:57:54;100706.00;;;27.30
64960;BMP180;51487;52.266;10.542;2023-06-10T14:00:20;100706.00;;;27.40
64960;BMP180;51487;52.266;10.542;2023-06-10T14:02:46;100701.00;;;27.40
64960;BMP180;51487;52.266;10.542;2023-06-10T14:05:11;100708.00;;;27.50
64960;BMP180;51487;52.266;10.542;2023-06-10T14:07:37;100713.00;;;27.10
64960;BMP180;51487;52.266;10.542;2023-06-10T14:10:03;100724.00;;;26.90